Time;durP1;ratioP1;P1;durP2;ratioP2;P2;SDS_P1;SDS_P2;PMS_P1;PMS_P2;Temp;Humidity;BMP_temperature;BMP_pressure;BME280_temperature;BME280_humidity;BME280_pressure;Samples;Min_cycle;Max_cycle;Signal;HPM_P1;HPM_P2
2022/04/20 00:02:17;;;;;;;4.68;2.70;;;9.50;99.90;;;;;;5035267;28;20400;-58
2022/04/20 00:04:43;;;;;;;3.22;2.58;;;9.40;99.90;;;;;;5035186;28;20132;-59
2022/04/20 00:07:10;;;;;;;3.92;2.80;;;9.40;99.90;;;;;;5026735;28;20125;-59
2022/04/20 00:09:37;;;;;;;3.83;3.17;;;9.30;99.90;;;;;;5032680;28;20478;-58
2022/04/20 00:12:04;;;;;;;3.50;2.88;;;9.30;99.90;;;;;;5033383;28;20155;-58
2022/04/20 00:14:31;;;;;;;3.65;2.88;;;9.30;99.90;;;;;;5035985;28;20128;-59
2022/04/20 00:16:58;;;;;;;2.72;2.20;;;9.30;99.90;;;;;;5037749;28;20049;-58
2022/04/20 00:19:25;;;;;;;3.83;2.88;;;9.30;99.90;;;;;;5039050;28;20072;-59
2022/04/20 00:21:52;;;;;;;3.88;2.85;;;9.30;99.90;;;;;;5035610;28;20073;-59
2022/04/20 00:24:19;;;;;;;3.10;2.60;;;9.30;99.90;;;;;;5031588;28;20387;-58
2022/04/20 00:26:46;;;;;;;3.70;3.13;;;9.20;99.90;;;;;;5031392;28;20084;-58
2022/04/20 00:29:12;;;;;;;4.10;2.97;;;9.20;99.90;;;;;;5039130;28;20143;-59
2022/04/20 00:31:39;;;;;;;3.88;2.67;;;9.20;99.90;;;;;;5034338;28;20072;-59
2022/04/20 00:34:06;;;;;;;3.70;2.80;;;9.20;99.90;;;;;;5031941;28;20041;-59
2022/04/20 00:36:33;;;;;;;3.15;2.63;;;9.20;99.90;;;;;;5026703;28;20124;-58
2022/04/20 00:39:00;;;;;;;4.30;2.40;;;9.10;99.90;;;;;;5030382;28;20104;-59
2022/04/20 00:41:26;;;;;;;4.00;3.00;;;9.10;99.90;;;;;;5030826;28;20119;-59
2022/04/20 00:43:54;;;;;;;3.38;2.80;;;9.00;99.90;;;;;;5032331;28;20049;-59
2022/04/20 00:46:20;;;;;;;3.05;2.25;;;9.00;99.90;;;;;;5037208;28;20131;-59
2022/04/20 00:48:47;;;;;;;3.67;2.70;;;9.00;99.90;;;;;;5004244;28;20045;-58
2022/04/20 00:51:14;;;;;;;4.50;2.80;;;8.90;99.90;;;;;;5036479;28;20091;-59
2022/04/20 00:53:41;;;;;;;3.35;2.80;;;8.80;99.90;;;;;;5034186;28;20191;-59
2022/04/20 00:56:07;;;;;;;3.88;2.63;;;8.80;99.90;;;;;;5035691;28;20041;-58
2022/04/20 00:58:35;;;;;;;3.67;2.90;;;8.70;99.90;;;;;;5037988;28;20059;-58
2022/04/20 01:01:02;;;;;;;3.17;2.72;;;8.70;99.90;;;;;;5035315;28;20096;-59
2022/04/20 01:03:29;;;;;;;3.15;2.47;;;8.70;99.90;;;;;;5032764;28;20052;-58
2022/04/20 01:05:56;;;;;;;3.30;2.80;;;8.70;99.90;;;;;;5027183;28;20052;-59
2022/04/20 01:08:22;;;;;;;3.67;2.78;;;8.70;99.90;;;;;;5030128;28;20471;-59
2022/04/20 01:10:49;;;;;;;3.53;2.70;;;8.70;99.90;;;;;;5030253;28;20140;-59
2022/04/20 01:13:16;;;;;;;3.45;2.92;;;8.70;99.90;;;;;;5031408;28;20210;-59
2022/04/20 01:15:42;;;;;;;3.22;2.53;;;8.70;99.90;;;;;;5029279;28;21014;-59
2022/04/20 01:18:15;;;;;;;4.05;2.80;;;8.60;99.90;;;;;;5029290;28;20188;-57
2022/04/20 01:20:42;;;;;;;3.40;2.70;;;8.60;99.90;;;;;;5030207;28;20079;-59
2022/04/20 01:23:10;;;;;;;3.58;2.72;;;8.60;99.90;;;;;;5030921;28;20049;-58
2022/04/20 01:25:37;;;;;;;3.22;2.42;;;8.60;99.90;;;;;;5029392;28;20579;-59
2022/04/20 01:28:05;;;;;;;4.20;3.20;;;8.60;99.90;;;;;;5030596;28;20096;-58
2022/04/20 01:30:32;;;;;;;3.63;2.95;;;8.50;99.90;;;;;;5035378;28;20126;-58
2022/04/20 01:33:00;;;;;;;3.05;2.60;;;8.50;99.90;;;;;;5034454;28;20133;-56
2022/04/20 01:35:27;;;;;;;3.90;2.95;;;8.50;99.90;;;;;;5034138;28;20632;-58
2022/04/20 01:37:53;;;;;;;3.85;2.92;;;8.40;99.90;;;;;;5032844;28;20579;-58
2022/04/20 01:40:20;;;;;;;4.72;3.40;;;8.40;99.90;;;;;;5036082;28;20079;-57
2022/04/20 01:42:47;;;;;;;3.85;2.80;;;8.40;99.90;;;;;;5035408;28;20128;-58
2022/04/20 01:45:14;;;;;;;3.85;3.00;;;8.40;99.90;;;;;;5036238;28;20069;-58
2022/04/20 01:47:40;;;;;;;3.58;2.78;;;8.40;99.90;;;;;;5029567;28;20059;-55
2022/04/20 01:50:07;;;;;;;4.30;3.25;;;8.30;99.90;;;;;;5034782;28;20441;-58
2022/04/20 01:52:34;;;;;;;3.35;2.65;;;8.30;99.90;;;;;;5031838;28;20127;-57
2022/04/20 01:55:01;;;;;;;3.83;2.85;;;8.30;99.90;;;;;;5038237;28;20157;-58
2022/04/20 01:57:27;;;;;;;4.50;3.03;;;8.30;99.90;;;;;;5035268;28;20124;-58
2022/04/20 01:59:54;;;;;;;2.90;2.22;;;8.30;99.90;;;;;;5029746;28;20200;-58
2022/04/20 02:02:38;;;;;;;3.70;3.00;;;8.30;99.90;;;;;;5030469;28;20129;-58
2022/04/20 02:05:07;;;;;;;4.85;3.03;;;8.30;99.90;;;;;;5030600;28;20139;-58
2022/04/20 02:07:34;;;;;;;3.38;2.60;;;8.30;99.90;;;;;;5029049;28;20140;-58
2022/04/20 02:10:01;;;;;;;3.33;2.67;;;8.20;99.90;;;;;;5031222;28;20629;-58
2022/04/20 02:12:28;;;;;;;3.63;2.80;;;8.20;99.90;;;;;;5029938;28;20748;-57
2022/04/20 02:14:55;;;;;;;3.38;2.67;;;8.20;99.90;;;;;;5028611;28;20422;-59
2022/04/20 02:17:22;;;;;;;3.88;3.20;;;8.20;99.90;;;;;;5030239;28;20041;-59
2022/04/20 02:19:49;;;;;;;3.72;2.60;;;8.20;99.90;;;;;;5036920;28;20308;-58
2022/04/20 02:22:16;;;;;;;3.42;2.72;;;8.20;99.90;;;;;;5035123;28;20084;-58
2022/04/20 02:24:42;;;;;;;3.88;2.90;;;8.20;99.90;;;;;;5037802;28;20112;-58
2022/04/20 02:27:09;;;;;;;3.50;2.75;;;8.20;99.90;;;;;;5036380;28;20073;-60
2022/04/20 02:29:37;;;;;;;3.70;2.70;;;8.20;99.90;;;;;;5038015;28;20042;-58
2022/04/20 02:32:06;;;;;;;3.38;2.45;;;8.20;99.90;;;;;;5029882;28;20077;-57
2022/04/20 02:34:33;;;;;;;4.05;3.00;;;8.20;99.90;;;;;;5029668;28;20137;-58
2022/04/20 02:37:00;;;;;;;3.30;2.80;;;8.10;99.90;;;;;;5030013;28;20480;-58
2022/04/20 02:39:27;;;;;;;3.15;2.40;;;8.10;99.90;;;;;;5030377;28;20168;-58
2022/04/20 02:41:53;;;;;;;4.85;3.25;;;8.10;99.90;;;;;;5032622;28;20147;-59
2022/04/20 02:44:20;;;;;;;3.78;3.38;;;8.10;99.90;;;;;;5013274;28;20215;-58
2022/04/20 02:46:47;;;;;;;3.88;3.22;;;8.10;99.90;;;;;;5028351;28;20080;-58
2022/04/20 02:49:15;;;;;;;3.60;2.85;;;8.10;99.90;;;;;;5032292;28;20593;-57
2022/04/20 02:51:42;;;;;;;3.50;2.88;;;8.10;99.90;;;;;;5033335;28;20172;-57
2022/04/20 02:54:09;;;;;;;3.47;2.97;;;8.10;99.90;;;;;;5035482;28;20087;-58
2022/04/20 02:56:35;;;;;;;3.92;3.10;;;8.10;99.90;;;;;;5041044;28;20492;-58
2022/04/20 02:59:02;;;;;;;5.05;3.60;;;8.10;99.90;;;;;;5040587;28;20648;-57
2022/04/20 03:01:30;;;;;;;5.07;3.63;;;8.10;99.90;;;;;;5038342;28;20171;-58
2022/04/20 03:03:58;;;;;;;3.72;3.33;;;8.10;99.90;;;;;;5038959;28;20110;-58
2022/04/20 03:06:27;;;;;;;5.53;3.90;;;8.10;99.90;;;;;;5028818;28;20497;-58
2022/04/20 03:08:54;;;;;;;5.50;4.22;;;8.20;99.90;;;;;;5034298;28;20053;-58
2022/04/20 03:11:21;;;;;;;3.92;3.30;;;8.20;99.90;;;;;;5032228;28;20439;-57
2022/04/20 03:13:48;;;;;;;3.85;3.20;;;8.20;99.90;;;;;;5033288;28;20129;-57
2022/04/20 03:16:15;;;;;;;5.57;3.45;;;8.20;99.90;;;;;;5033435;28;20157;-58
2022/04/20 03:18:42;;;;;;;4.35;3.47;;;8.20;99.90;;;;;;5033981;28;20048;-58
2022/04/20 03:21:08;;;;;;;4.85;3.58;;;8.30;99.90;;;;;;5015083;28;20088;-57
2022/04/20 03:23:35;;;;;;;5.30;3.72;;;8.20;99.90;;;;;;5039020;28;20045;-58
2022/04/20 03:26:03;;;;;;;4.50;3.53;;;8.20;99.90;;;;;;5039790;28;20552;-58
2022/04/20 03:28:30;;;;;;;4.32;3.28;;;8.20;99.90;;;;;;5040632;28;20432;-58
2022/04/20 03:30:57;;;;;;;5.05;4.53;;;8.20;99.90;;;;;;5038259;28;20132;-57
2022/04/20 03:33:24;;;;;;;5.22;4.72;;;8.10;99.90;;;;;;5037085;28;20188;-59
2022/04/20 03:35:50;;;;;;;6.20;4.50;;;8.20;99.90;;;;;;5038340;28;20095;-58
2022/04/20 03:38:17;;;;;;;5.13;4.05;;;8.20;99.90;;;;;;5038242;28;20135;-58
2022/04/20 03:40:44;;;;;;;5.57;4.28;;;8.20;99.90;;;;;;5039832;28;20041;-58
2022/04/20 03:43:11;;;;;;;5.60;3.90;;;8.20;99.90;;;;;;5033339;28;20129;-57
2022/04/20 03:45:38;;;;;;;5.38;4.30;;;8.10;99.90;;;;;;5030983;28;20131;-58
2022/04/20 03:48:05;;;;;;;7.93;5.50;;;8.20;99.90;;;;;;5034019;28;20055;-58
2022/04/20 03:50:32;;;;;;;6.20;5.00;;;8.10;99.90;;;;;;5032872;28;20103;-58
2022/04/20 03:52:59;;;;;;;6.95;5.72;;;8.10;99.90;;;;;;5032922;28;20058;-58
2022/04/20 03:55:26;;;;;;;6.07;5.30;;;8.10;99.90;;;;;;5030574;28;20129;-58
2022/04/20 03:57:53;;;;;;;6.40;5.25;;;8.00;99.90;;;;;;5031575;28;20732;-58
2022/04/20 04:00:20;;;;;;;5.97;5.03;;;8.00;99.90;;;;;;5032371;28;20075;-57
2022/04/20 04:02:47;;;;;;;6.85;5.25;;;8.00;99.90;;;;;;5033116;28;20079;-58
2022/04/20 04:05:14;;;;;;;6.63;5.28;;;8.00;99.90;;;;;;5032867;28;20410;-58
2022/04/20 04:07:41;;;;;;;5.60;4.60;;;8.00;99.90;;;;;;5032135;28;20119;-57
2022/04/20 04:10:08;;;;;;;5.35;4.57;;;8.00;99.90;;;;;;5031959;28;20050;-58
2022/04/20 04:12:35;;;;;;;6.30;4.95;;;8.00;99.90;;;;;;5031662;28;20448;-58
2022/04/20 04:15:02;;;;;;;6.07;4.68;;;8.00;99.90;;;;;;5039153;28;20081;-58
2022/04/20 04:17:29;;;;;;;5.85;4.30;;;8.00;99.90;;;;;;5038296;28;20117;-58
2022/04/20 04:19:56;;;;;;;6.10;4.82;;;8.00;99.90;;;;;;5038656;28;20152;-58
2022/04/20 04:22:23;;;;;;;5.18;4.68;;;7.90;99.90;;;;;;5028683;28;20410;-58
2022/04/20 04:24:49;;;;;;;5.85;4.30;;;8.00;99.90;;;;;;5039901;28;20049;-57
2022/04/20 04:27:17;;;;;;;6.38;4.80;;;8.00;99.90;;;;;;5032032;28;20178;-57
2022/04/20 04:29:43;;;;;;;7.20;5.07;;;7.90;99.90;;;;;;5033093;28;20056;-58
2022/04/20 04:32:12;;;;;;;5.22;4.30;;;7.90;99.90;;;;;;5027201;28;20502;-57
2022/04/20 04:34:40;;;;;;;5.80;4.13;;;7.90;99.90;;;;;;5033339;28;20107;-58
2022/04/20 04:37:09;;;;;;;5.28;4.57;;;7.90;99.90;;;;;;5036175;28;20642;-58
2022/04/20 04:39:35;;;;;;;6.43;4.63;;;7.90;99.90;;;;;;5039702;28;20092;-58
2022/04/20 04:42:02;;;;;;;5.15;4.43;;;7.90;99.90;;;;;;5033270;28;20088;-58
2022/04/20 04:44:32;;;;;;;4.50;3.55;;;7.90;99.90;;;;;;5032313;28;20136;-57
2022/04/20 04:49:44;;;;;;;4.95;4.18;;;7.90;99.90;;;;;;5028556;28;20088;-58
2022/04/20 04:52:13;;;;;;;5.57;4.38;;;7.90;99.90;;;;;;5029253;28;20655;-58
2022/04/20 04:54:40;;;;;;;6.20;4.72;;;7.90;99.90;;;;;;5035777;28;20140;-58
2022/04/20 04:57:07;;;;;;;5.55;4.95;;;7.90;99.90;;;;;;5036163;28;20055;-57
2022/04/20 04:59:36;;;;;;;6.53;4.78;;;7.90;99.90;;;;;;5036544;28;20051;-58
2022/04/20 05:02:03;;;;;;;5.30;4.68;;;7.90;99.90;;;;;;5030997;28;20204;-61
2022/04/20 05:04:30;;;;;;;5.90;5.03;;;7.90;99.90;;;;;;5026506;28;20049;-58
2022/04/20 05:06:57;;;;;;;5.78;4.90;;;8.00;99.90;;;;;;5031033;28;20068;-57
2022/04/20 05:09:24;;;;;;;6.93;5.63;;;8.00;99.90;;;;;;5030935;28;20439;-57
2022/04/20 05:11:51;;;;;;;7.53;6.03;;;8.00;99.90;;;;;;5029596;28;20059;-57
2022/04/20 05:14:18;;;;;;;6.95;6.15;;;8.00;99.90;;;;;;5031312;28;20057;-58
2022/04/20 05:16:44;;;;;;;8.02;7.20;;;8.00;99.90;;;;;;5033415;28;20136;-62
2022/04/20 05:19:11;;;;;;;6.95;6.25;;;8.00;99.90;;;;;;5031425;28;20144;-57
2022/04/20 05:21:38;;;;;;;9.55;7.95;;;8.00;99.90;;;;;;5032611;28;20194;-57
2022/04/20 05:24:05;;;;;;;8.00;6.70;;;8.00;99.90;;;;;;5030214;28;20446;-58
2022/04/20 05:26:32;;;;;;;9.38;7.32;;;8.00;99.90;;;;;;5026276;28;20174;-56
2022/04/20 05:28:59;;;;;;;8.13;6.97;;;8.10;99.90;;;;;;5021538;28;20453;-57
2022/04/20 05:31:25;;;;;;;7.53;6.35;;;8.10;99.90;;;;;;5025561;28;20243;-57
2022/04/20 05:33:52;;;;;;;7.97;6.50;;;8.10;99.90;;;;;;5031780;28;20202;-58
2022/04/20 05:36:19;;;;;;;6.68;5.68;;;8.20;99.90;;;;;;5026475;28;20053;-57
2022/04/20 05:41:40;;;;;;;9.38;7.38;;;8.30;99.90;;;;;;5026636;28;20053;-60
2022/04/20 05:44:08;;;;;;;8.18;6.53;;;8.40;99.90;;;;;;5034412;28;20052;-57
2022/04/20 05:46:35;;;;;;;7.47;6.22;;;8.50;99.90;;;;;;5017800;28;20136;-58
2022/04/20 05:49:02;;;;;;;6.93;5.85;;;8.50;99.90;;;;;;5011723;28;20086;-57
2022/04/20 05:51:29;;;;;;;6.55;5.85;;;8.70;99.90;;;;;;5006896;28;20147;-58
2022/04/20 05:53:55;;;;;;;6.60;4.90;;;8.80;99.90;;;;;;5011999;28;20157;-59
2022/04/20 05:56:22;;;;;;;5.63;5.03;;;8.80;99.90;;;;;;4999099;28;20125;-57
2022/04/20 05:58:52;;;;;;;5.60;4.70;;;8.90;99.90;;;;;;5003323;28;20053;-59
2022/04/20 06:01:19;;;;;;;6.85;4.95;;;9.00;99.90;;;;;;5007883;28;20517;-59
2022/04/20 06:03:46;;;;;;;6.97;5.72;;;9.10;99.90;;;;;;5006828;28;20053;-59
2022/04/20 06:06:13;;;;;;;7.60;6.05;;;9.10;99.90;;;;;;5003215;28;20145;-59
2022/04/20 06:08:41;;;;;;;8.45;6.03;;;9.20;99.90;;;;;;5003484;28;20148;-59
2022/04/20 06:11:07;;;;;;;7.72;6.20;;;9.30;99.90;;;;;;5011100;28;20037;-60
2022/04/20 06:13:35;;;;;;;8.13;6.05;;;9.40;99.90;;;;;;5023682;28;20051;-59
2022/04/20 06:16:05;;;;;;;6.47;5.47;;;9.60;99.90;;;;;;5024855;28;20471;-59
2022/04/20 06:18:31;;;;;;;8.90;5.85;;;9.60;99.90;;;;;;5011197;28;20416;-60
2022/04/20 06:20:58;;;;;;;7.53;6.03;;;9.60;99.90;;;;;;5013683;28;20045;-59
2022/04/20 06:23:25;;;;;;;6.95;5.68;;;9.60;99.90;;;;;;5020870;28;20060;-60
2022/04/20 06:25:55;;;;;;;9.30;6.60;;;9.60;99.90;;;;;;5016537;28;20642;-60
2022/04/20 06:28:25;;;;;;;8.15;6.65;;;9.60;99.90;;;;;;5016111;28;20049;-60
2022/04/20 06:30:53;;;;;;;7.07;5.70;;;9.70;99.90;;;;;;5016685;28;20162;-59
2022/04/20 06:33:21;;;;;;;7.68;6.47;;;9.70;99.90;;;;;;5015555;28;20128;-59
2022/04/20 06:35:48;;;;;;;6.75;5.53;;;9.80;99.90;;;;;;5017372;28;20103;-60
2022/04/20 06:38:16;;;;;;;7.85;5.93;;;9.90;99.90;;;;;;5017670;28;20057;-60
2022/04/20 06:40:43;;;;;;;7.05;6.03;;;10.00;99.90;;;;;;5017195;28;20151;-59
2022/04/20 06:43:10;;;;;;;8.43;6.35;;;10.10;99.90;;;;;;5017226;28;20121;-59
2022/04/20 06:45:37;;;;;;;7.25;5.28;;;10.20;99.90;;;;;;5016935;28;20121;-59
2022/04/20 06:48:04;;;;;;;6.60;5.45;;;10.20;99.90;;;;;;5016463;28;20149;-60
2022/04/20 06:50:31;;;;;;;6.95;5.80;;;10.30;99.90;;;;;;5017048;28;20140;-59
2022/04/20 06:58:38;;;;;;;6.40;5.57;;;10.50;99.90;;;;;;5017863;28;20050;-59
2022/04/20 07:01:06;;;;;;;7.35;5.53;;;10.50;99.90;;;;;;5017094;28;20073;-60
2022/04/20 07:03:36;;;;;;;10.52;7.78;;;10.60;99.90;;;;;;5016800;28;20050;-60
2022/04/20 07:06:03;;;;;;;9.77;7.35;;;10.50;99.90;;;;;;5015824;28;20093;-60
2022/04/20 07:08:30;;;;;;;8.90;6.72;;;10.40;99.90;;;;;;5017022;28;20142;-59
2022/04/20 07:10:57;;;;;;;7.97;6.43;;;10.40;99.90;;;;;;5016878;28;20050;-60
2022/04/20 07:13:24;;;;;;;7.50;6.00;;;10.40;99.90;;;;;;5017087;28;20388;-59
2022/04/20 07:15:51;;;;;;;8.02;6.47;;;10.40;99.90;;;;;;5016051;28;20537;-59
2022/04/20 07:18:18;;;;;;;7.47;5.78;;;10.40;99.90;;;;;;5016618;28;20110;-59
2022/04/20 07:20:44;;;;;;;8.13;6.70;;;10.40;99.90;;;;;;5016055;28;20065;-59
2022/04/20 07:23:11;;;;;;;6.88;5.97;;;10.40;99.90;;;;;;5016999;28;20086;-59
2022/04/20 07:25:38;;;;;;;7.35;5.60;;;10.50;99.90;;;;;;5015650;28;20132;-59
2022/04/20 07:28:08;;;;;;;7.00;6.07;;;10.50;99.90;;;;;;5017720;28;20653;-59
2022/04/20 07:30:37;;;;;;;6.80;5.15;;;10.50;99.90;;;;;;5015845;28;20276;-59
2022/04/20 07:33:05;;;;;;;5.13;4.57;;;10.50;99.90;;;;;;5015191;28;20444;-59
2022/04/20 07:35:32;;;;;;;6.18;5.38;;;10.50;99.90;;;;;;5019024;28;20315;-58
2022/04/20 07:37:58;;;;;;;5.47;4.60;;;10.50;99.90;;;;;;5020745;28;20164;-59
2022/04/20 07:40:25;;;;;;;6.60;4.93;;;10.50;99.90;;;;;;5019869;28;20140;-59
2022/04/20 07:42:54;;;;;;;5.07;4.50;;;10.50;99.90;;;;;;5020758;28;20543;-59
2022/04/20 07:45:25;;;;;;;5.70;4.25;;;10.60;99.90;;;;;;5002778;28;20353;-59
2022/04/20 07:47:54;;;;;;;5.38;4.15;;;10.60;99.90;;;;;;5020212;28;20075;-59
2022/04/20 07:50:23;;;;;;;5.78;4.47;;;10.70;99.90;;;;;;5020032;28;20137;-59
2022/04/20 07:53:00;;;;;;;5.75;4.47;;;10.80;99.90;;;;;;5015481;28;20057;-59
2022/04/20 07:55:30;;;;;;;5.13;3.83;;;10.90;99.90;;;;;;5002835;28;20160;-59
2022/04/20 07:57:57;;;;;;;5.25;4.22;;;11.00;99.90;;;;;;5009723;28;20116;-59
2022/04/20 08:00:24;;;;;;;5.28;4.15;;;11.00;99.90;;;;;;5019340;28;20132;-59
2022/04/20 08:03:01;;;;;;;5.82;3.60;;;11.00;99.90;;;;;;5027235;28;20464;-59
2022/04/20 08:05:27;;;;;;;5.03;3.45;;;11.20;99.90;;;;;;5020270;28;20050;-58
2022/04/20 08:07:54;;;;;;;5.05;3.92;;;11.30;99.90;;;;;;5039797;28;20458;-59
2022/04/20 08:10:21;;;;;;;4.78;3.42;;;11.40;99.90;;;;;;5025152;28;20102;-59
2022/04/20 08:12:47;;;;;;;6.38;3.80;;;11.50;99.90;;;;;;5020134;28;20142;-59
2022/04/20 08:15:14;;;;;;;4.68;4.03;;;11.50;99.90;;;;;;5018319;28;20133;-59
2022/04/20 08:17:41;;;;;;;4.75;3.67;;;11.60;99.90;;;;;;5008009;28;20160;-59
2022/04/20 08:20:08;;;;;;;6.10;4.57;;;11.60;99.90;;;;;;5023104;28;20140;-59
2022/04/20 08:22:40;;;;;;;6.60;4.93;;;11.60;99.90;;;;;;5018718;28;20124;-59
2022/04/20 08:25:10;;;;;;;6.05;4.35;;;11.70;99.90;;;;;;5019432;28;20136;-59
2022/04/20 08:27:37;;;;;;;5.00;3.65;;;11.80;99.90;;;;;;5019055;28;20080;-60
2022/04/20 08:30:05;;;;;;;4.63;3.90;;;11.90;99.90;;;;;;5019504;28;20213;-59
2022/04/20 08:32:32;;;;;;;5.55;3.80;;;12.00;99.90;;;;;;5025253;28;20243;-60
2022/04/20 08:34:58;;;;;;;3.95;3.17;;;12.00;99.90;;;;;;5025946;28;20076;-59
2022/04/20 08:37:27;;;;;;;5.65;3.83;;;12.10;99.90;;;;;;5015571;28;20052;-60
2022/04/20 08:39:54;;;;;;;5.18;4.22;;;12.20;99.90;;;;;;5014864;28;20441;-60
2022/04/20 08:42:22;;;;;;;4.50;3.60;;;12.20;99.90;;;;;;5001649;28;20049;-60
2022/04/20 08:44:50;;;;;;;5.00;4.40;;;12.30;99.90;;;;;;5018642;28;20511;-60
2022/04/20 08:47:21;;;;;;;6.18;4.35;;;12.30;99.90;;;;;;5012263;28;20092;-59
2022/04/20 08:49:49;;;;;;;4.78;3.63;;;12.40;99.90;;;;;;5009566;28;20057;-60
2022/04/20 08:52:38;;;;;;;6.30;4.03;;;12.50;99.90;;;;;;5013476;28;20378;-60
2022/04/20 08:55:11;;;;;;;4.95;4.15;;;12.60;99.90;;;;;;5003161;28;20148;-59
2022/04/20 08:57:38;;;;;;;5.53;3.72;;;12.70;99.90;;;;;;5000332;28;20073;-59
2022/04/20 09:00:09;;;;;;;5.30;3.90;;;12.80;99.90;;;;;;5005579;28;20107;-59
2022/04/20 09:02:36;;;;;;;3.97;3.33;;;12.90;99.90;;;;;;5021360;28;20098;-60
2022/04/20 09:05:04;;;;;;;5.13;4.28;;;13.10;99.90;;;;;;5013810;28;20068;-59
2022/04/20 09:07:31;;;;;;;4.78;4.28;;;13.10;99.90;;;;;;5006619;28;20273;-59
2022/04/20 09:10:00;;;;;;;4.95;4.15;;;13.20;99.90;;;;;;5015089;28;20136;-59
2022/04/20 09:12:28;;;;;;;5.05;4.07;;;13.30;99.90;;;;;;5006782;28;20050;-59
2022/04/20 09:14:56;;;;;;;4.45;3.83;;;13.50;99.90;;;;;;5001824;28;20150;-59
2022/04/20 09:17:24;;;;;;;4.40;3.40;;;13.60;99.90;;;;;;5003363;28;20081;-59
2022/04/20 09:19:54;;;;;;;4.28;3.13;;;13.70;99.90;;;;;;5010426;28;20084;-59
2022/04/20 09:22:23;;;;;;;3.85;2.78;;;13.80;99.90;;;;;;5002689;28;20066;-59
2022/04/20 09:25:11;;;;;;;3.65;2.83;;;13.90;99.90;;;;;;5005477;28;20071;-59
2022/04/20 09:27:39;;;;;;;3.55;2.80;;;14.10;99.90;;;;;;5010379;28;20505;-59
2022/04/20 09:30:16;;;;;;;3.85;2.65;;;14.20;99.90;;;;;;5005770;28;20081;-59
2022/04/20 09:32:44;;;;;;;4.65;3.22;;;14.30;99.90;;;;;;5002748;28;20049;-60
2022/04/20 09:35:12;;;;;;;4.50;3.08;;;14.30;99.90;;;;;;5018734;28;20136;-60
2022/04/20 09:37:40;;;;;;;3.55;2.92;;;14.40;99.90;;;;;;5017166;28;20141;-59
2022/04/20 09:40:11;;;;;;;4.88;2.80;;;14.50;99.90;;;;;;5018108;28;20607;-59
2022/04/20 09:43:13;;;;;;;4.05;2.60;;;14.60;99.90;;;;;;5017453;28;20107;-59
2022/04/20 09:45:41;;;;;;;3.60;2.17;;;14.80;99.90;;;;;;5016320;28;20080;-59
2022/04/20 09:51:10;;;;;;;3.45;2.38;;;14.90;99.90;;;;;;5019501;28;20050;-59
2022/04/20 09:53:37;;;;;;;3.80;3.00;;;15.00;99.90;;;;;;5020695;28;20057;-60
2022/04/20 09:56:24;;;;;;;3.55;2.47;;;15.10;99.90;;;;;;5020011;28;20276;-59
2022/04/20 09:58:58;;;;;;;3.70;2.20;;;15.20;99.90;;;;;;5022513;28;20084;-60
2022/04/20 10:01:25;;;;;;;3.92;2.38;;;15.30;99.90;;;;;;5023488;28;20140;-59
2022/04/20 10:03:55;;;;;;;3.55;1.98;;;15.40;99.90;;;;;;5022999;28;20049;-59
2022/04/20 10:06:22;;;;;;;3.72;2.17;;;15.50;99.90;;;;;;5021247;28;20135;-60
2022/04/20 10:08:51;;;;;;;3.10;2.10;;;15.60;99.90;;;;;;5021759;28;20077;-60
2022/04/20 10:11:21;;;;;;;2.65;2.00;;;15.70;99.90;;;;;;5020509;28;20053;-60
2022/04/20 10:16:05;;;;;;;3.03;2.10;;;15.70;99.90;;;;;;5022588;28;20077;-59
2022/04/20 10:16:38;;;;;;;3.65;2.63;;;15.80;99.90;;;;;;5021851;28;20534;-59
2022/04/20 10:19:09;;;;;;;3.45;2.33;;;15.90;99.60;;;;;;5024016;28;20489;-59
2022/04/20 10:21:39;;;;;;;4.53;2.28;;;15.90;99.20;;;;;;5022136;28;20079;-60
2022/04/20 10:24:06;;;;;;;3.42;2.65;;;15.80;98.20;;;;;;5020878;28;20049;-60
2022/04/20 10:26:34;;;;;;;3.53;2.42;;;15.70;98.10;;;;;;5018989;28;20124;-60
2022/04/20 10:29:27;;;;;;;2.20;1.80;;;15.70;97.50;;;;;;5005263;28;20053;-60
2022/04/20 10:32:22;;;;;;;3.95;2.10;;;15.80;97.50;;;;;;5019631;28;20124;-60
2022/04/20 10:34:52;;;;;;;2.45;1.63;;;16.00;97.90;;;;;;5020171;28;20096;-60
2022/04/20 10:37:21;;;;;;;3.28;2.22;;;16.00;97.80;;;;;;5017951;28;20294;-59
2022/04/20 10:39:48;;;;;;;3.28;2.00;;;16.00;98.70;;;;;;5019612;28;20089;-60
2022/04/20 10:42:16;;;;;;;3.75;1.92;;;16.10;98.50;;;;;;5019808;28;20132;-59
2022/04/20 10:44:55;;;;;;;4.70;2.60;;;16.10;98.30;;;;;;5023746;28;20560;-59
2022/04/20 10:47:25;;;;;;;3.42;2.53;;;16.20;97.90;;;;;;5020369;28;20273;-59
2022/04/20 10:49:53;;;;;;;5.15;2.00;;;16.30;95.90;;;;;;5020694;28;20049;-59
2022/04/20 10:52:39;;;;;;;2.60;2.00;;;16.40;94.90;;;;;;5021645;28;20147;-60
2022/04/20 10:55:09;;;;;;;4.80;2.47;;;16.60;94.50;;;;;;5024006;28;20045;-59
2022/04/20 10:57:40;;;;;;;3.90;2.42;;;16.70;92.90;;;;;;5024078;28;20080;-60
2022/04/20 11:00:16;;;;;;;2.67;2.10;;;16.70;92.70;;;;;;5021746;28;20107;-60
2022/04/20 11:03:06;;;;;;;3.08;2.00;;;16.70;92.70;;;;;;5023204;28;20103;-60
2022/04/20 11:05:48;;;;;;;3.90;2.05;;;17.00;92.60;;;;;;5022276;28;20445;-60
2022/04/20 11:08:15;;;;;;;3.58;2.25;;;17.20;91.20;;;;;;5018690;28;20156;-60
2022/04/20 11:10:42;;;;;;;3.20;2.50;;;17.50;91.70;;;;;;5023472;28;20514;-59
2022/04/20 11:19:09;;;;;;;3.53;2.50;;;18.00;91.40;;;;;;5027445;28;20487;-60
2022/04/20 11:21:37;;;;;;;3.08;2.78;;;18.30;89.50;;;;;;5025718;28;20056;-60
2022/04/20 11:24:07;;;;;;;4.30;2.67;;;18.30;85.90;;;;;;5025243;28;20152;-60
2022/04/20 11:26:51;;;;;;;4.57;2.80;;;18.40;84.10;;;;;;5024050;28;20216;-60
2022/04/20 11:29:21;;;;;;;3.53;2.50;;;18.60;84.50;;;;;;5027135;28;20080;-59
2022/04/20 11:31:49;;;;;;;3.67;2.90;;;18.70;83.40;;;;;;5026925;28;20056;-60
2022/04/20 11:34:18;;;;;;;3.38;2.90;;;18.70;82.80;;;;;;5020290;28;20508;-60
2022/04/20 11:36:46;;;;;;;5.43;3.22;;;18.40;79.90;;;;;;5005657;28;20049;-61
2022/04/20 11:39:15;;;;;;;3.72;2.92;;;18.20;79.70;;;;;;5008364;28;20088;-61
2022/04/20 11:41:51;;;;;;;3.47;2.88;;;18.50;81.00;;;;;;5007047;28;20085;-61
2022/04/20 11:44:28;;;;;;;4.68;2.80;;;18.80;80.50;;;;;;5038740;28;20482;-60
2022/04/20 11:47:05;;;;;;;3.28;2.47;;;19.10;78.90;;;;;;5007659;28;20160;-60
2022/04/20 11:49:42;;;;;;;3.55;2.35;;;19.40;80.40;;;;;;5035381;28;20123;-60
2022/04/20 11:52:11;;;;;;;3.08;2.60;;;19.60;77.20;;;;;;5015589;28;20052;-60
2022/04/20 11:54:39;;;;;;;5.00;2.60;;;19.60;74.80;;;;;;5010697;28;20116;-60
2022/04/20 11:57:09;;;;;;;3.45;2.42;;;19.50;75.10;;;;;;5011866;28;20161;-60
2022/04/20 11:59:46;;;;;;;3.13;2.55;;;19.80;76.20;;;;;;5019313;28;20057;-60
2022/04/20 12:02:13;;;;;;;3.92;2.35;;;20.10;74.00;;;;;;5016538;28;20452;-60
2022/04/20 12:04:40;;;;;;;3.78;1.98;;;20.30;73.70;;;;;;5025558;28;20053;-60
2022/04/20 12:07:08;;;;;;;3.67;2.33;;;20.60;73.10;;;;;;5012141;28;20167;-61
2022/04/20 12:09:37;;;;;;;3.20;2.20;;;20.70;73.00;;;;;;5024731;28;20414;-60
2022/04/20 12:12:05;;;;;;;2.85;2.35;;;20.80;71.00;;;;;;5026075;28;20092;-60
2022/04/20 12:14:37;;;;;;;2.88;2.20;;;20.60;70.00;;;;;;5023774;28;20136;-60
2022/04/20 12:17:06;;;;;;;4.47;2.35;;;20.50;69.50;;;;;;5007235;28;20156;-60
2022/04/20 12:19:33;;;;;;;4.63;2.30;;;20.60;70.40;;;;;;5038102;28;20054;-60
2022/04/20 12:22:11;;;;;;;2.50;2.00;;;20.60;71.30;;;;;;5013896;28;20088;-60
2022/04/20 12:24:38;;;;;;;2.88;1.95;;;21.00;71.10;;;;;;5022362;28;20047;-61
2022/04/20 12:27:18;;;;;;;2.58;1.88;;;21.20;69.90;;;;;;5019777;28;20520;-60
2022/04/20 12:29:55;;;;;;;2.75;1.95;;;21.60;69.50;;;;;;5011996;28;20485;-61
2022/04/20 12:32:41;;;;;;;2.60;2.40;;;21.90;69.10;;;;;;5031780;28;20447;-61
2022/04/20 12:35:08;;;;;;;2.60;2.30;;;21.70;65.80;;;;;;5023399;28;20149;-60
2022/04/20 12:37:39;;;;;;;5.00;2.50;;;21.70;66.90;;;;;;5014484;28;20372;-60
2022/04/20 12:40:24;;;;;;;3.33;2.30;;;21.80;64.90;;;;;;5023065;28;20127;-60
2022/04/20 12:43:02;;;;;;;2.40;2.20;;;21.70;66.10;;;;;;5014864;28;20140;-60
2022/04/20 12:45:28;;;;;;;3.08;2.53;;;22.00;67.20;;;;;;5010342;28;20141;-61
2022/04/20 12:48:05;;;;;;;3.50;1.80;;;22.00;63.80;;;;;;5017210;28;20556;-60
2022/04/20 12:50:39;;;;;;;3.80;2.13;;;22.20;64.60;;;;;;5013440;28;20054;-60
2022/04/20 12:53:06;;;;;;;2.90;2.40;;;22.20;64.00;;;;;;5023788;28;20045;-60
2022/04/20 12:55:40;;;;;;;3.45;2.50;;;22.10;62.30;;;;;;5024075;28;20481;-60
2022/04/20 13:03:46;;;;;;;5.72;2.97;;;21.80;62.40;;;;;;5022460;28;20136;-60
2022/04/20 13:06:13;;;;;;;2.65;2.40;;;21.80;61.20;;;;;;5005021;28;20509;-60
2022/04/20 13:08:41;;;;;;;3.92;3.00;;;22.00;60.80;;;;;;5010359;28;20045;-60
2022/04/20 13:11:12;;;;;;;4.28;3.00;;;21.90;59.70;;;;;;5006084;28;20137;-60
2022/04/20 13:13:59;;;;;;;3.70;2.90;;;22.00;60.60;;;;;;5029870;28;20049;-60
2022/04/20 13:16:25;;;;;;;3.50;2.72;;;21.90;59.10;;;;;;5027395;28;20060;-60
2022/04/20 13:18:53;;;;;;;3.35;2.20;;;22.00;59.20;;;;;;5006937;28;20057;-60
2022/04/20 13:21:20;;;;;;;4.22;2.33;;;22.10;57.50;;;;;;5013725;28;20046;-60
2022/04/20 13:23:49;;;;;;;3.25;2.10;;;22.00;57.70;;;;;;5020377;28;20086;-59
2022/04/20 13:29:01;;;;;;;2.75;2.20;;;22.20;58.50;;;;;;5018673;28;20046;-60
2022/04/20 13:31:28;;;;;;;2.88;2.25;;;22.10;57.50;;;;;;5007676;28;20167;-60